• Join FlightAware (Why Join?)
  • Login
  • US Flag 
12:39AM EDT


 

Airport Tracker/Info


-or-


 

Live Flight TrackerFlight Track Log ✈ SWA1521 ✈ 01-May-2013 ✈ KSEA - KSMF

Flight Track Log - Related Links

Times and Time Zones

All times are in EDT time to prevent confusion due to time zone crossing. See the SWA1521 flight status page for this flight to view local times or setup timezone preferences in your user account.

Time Position Orientation Groundspeed Altitude Reporting Facility
EDT Latitude Longitude Course Direction KTS MPH feet Rate Location/Type
09:18PM 47.4603 -122.3131 North 155 178 1,000  Level Seattle Center
09:19PM 47.4914 -122.3122 North 158 182 2,200 2,340 Climbing Seattle Center
09:20PM 47.5578 -122.3117 360° North 222 255 5,300 3,000 Climbing Seattle Center
09:20PM 47.5972 -122.3136 358° North 223 257 7,400 3,600 Climbing Seattle Center
09:21PM 47.6203 -122.2356 66° East 237 273 11,200 2,700 Climbing Seattle Center
09:22PM 47.5517 -122.1875 155° Southeast 297 342 12,900 1,920 Climbing Seattle Center
09:23PM 47.4686 -122.1781 176° South 346 398 15,200 2,700 Climbing Seattle Center
09:24PM 47.3392 -122.1658 176° South 389 448 18,400 3,000 Climbing Seattle Center
09:25PM 47.2286 -122.1556 176° South 399 459 21,300 2,580 Climbing Seattle Center
09:26PM 47.1133 -122.1461 177° South 416 479 23,700 2,220 Climbing Seattle Center
09:27PM 46.9939 -122.1344 176° South 431 496 25,900 2,100 Climbing Seattle Center
09:29PM 46.8708 -122.1239 177° South 446 513 28,000 1,860 Climbing Seattle Center
09:30PM 46.7447 -122.1131 177° South 457 526 29,700 1,560 Climbing Seattle Center
09:31PM 46.6139 -122.1006 176° South 474 545 31,200 1,620 Climbing Seattle Center
09:32PM 46.4817 -122.0872 176° South 481 554 33,100 1,860 Climbing Seattle Center
09:33PM 46.3500 -122.0775 177° South 479 551 35,000 1,620 Climbing Seattle Center
09:34PM 46.2106 -122.0639 176° South 473 544 36,500 1,200 Climbing Seattle Center
09:35PM 46.0778 -122.0514 176° South 478 550 37,500 960 Climbing Seattle Center
09:36PM 45.9442 -122.0394 176° South 481 554 38,500 720 Climbing Seattle Center
09:37PM 45.8092 -122.0292 177° South 483 556 39,000 240 Climbing Seattle Center
09:38PM 45.6742 -122.0167 176° South 485 558 39,000  Level Seattle Center
09:39PM 45.5392 -122.0047 176° South 486 559 39,000  Level Seattle Center
09:40PM 45.3792 -121.9914 177° South 483 556 39,000  Level Seattle Center
09:41PM 45.2458 -121.9806 177° South 481 554 39,000  Level Seattle Center
09:42PM 45.1089 -121.9664 176° South 485 558 39,000  Level Seattle Center
09:43PM 44.9747 -121.9578 177° South 484 557 39,000  Level Seattle Center
09:44PM 44.8447 -121.9425 175° South 473 544 39,000  Level Seattle Center
09:45PM 44.7150 -121.9331 177° South 466 536 39,000  Level Seattle Center
09:46PM 44.5822 -121.9219 177° South 471 542 39,000  Level Seattle Center
09:47PM 44.4489 -121.9100 176° South 475 547 39,000  Level Seattle Center
09:48PM 44.3156 -121.8992 177° South 478 550 39,000  Level Seattle Center
09:49PM 44.1914 -121.8886 177° South 478 550 39,000  Level Seattle Center
09:50PM 44.0336 -121.8789 177° South 476 548 39,000  Level Seattle Center
09:51PM 43.9011 -121.8669 176° South 478 550 39,000  Level Seattle Center
09:52PM 43.7714 -121.8569 177° South 484 557 39,000  Level Seattle Center
09:53PM 43.6394 -121.8461 177° South 477 549 39,000  Level Seattle Center
09:54PM 43.5067 -121.8333 176° South 477 549 39,000  Level Seattle Center
09:55PM 43.3736 -121.8233 177° South 478 550 39,000  Level Seattle Center
09:56PM 43.2397 -121.8125 177° South 480 552 39,000  Level Seattle Center
09:57PM 43.1056 -121.8011 176° South 482 555 39,000  Level Seattle Center
09:58PM 42.9717 -121.7950 178° South 481 554 39,000  Level Seattle Center
09:59PM 42.8381 -121.7833 176° South 481 554 39,000  Level Seattle Center
10:00PM 42.7056 -121.7719 176° South 477 549 39,000  Level Seattle Center
10:01PM 42.5728 -121.7614 177° South 476 548 39,000  Level Seattle Center
10:02PM 42.4400 -121.7508 177° South 474 545 39,000  Level Seattle Center
10:03PM 42.3075 -121.7392 176° South 474 545 39,000  Level Seattle Center
10:04PM 42.1739 -121.7286 177° South 475 547 39,000  Level Seattle Center
10:05PM 42.0392 -121.7264 179° South 473 544 39,000  Level Seattle Center
10:06PM 41.9061 -121.7272 180° South 470 541 39,000  Level Seattle Center
10:07PM 41.7725 -121.7261 180° South 472 543 39,000  Level Seattle Center
10:08PM 41.6408 -121.7258 180° South 472 543 39,000  Level Seattle Center
10:09PM 41.4836 -121.7242 180° South 471 542 39,000  Level Seattle Center
10:10PM 41.3517 -121.7164 177° South 473 544 39,000  Level Seattle Center
10:11PM 41.2200 -121.7083 177° South 472 543 39,000  Level Seattle Center
10:12PM 41.0883 -121.7017 178° South 472 543 39,000  Level Seattle Center
10:13PM 41.0372 -121.6972 176° South 468 539 39,000  Level Oakland Center
10:14PM 40.9050 -121.6897 178° South 471 542 39,000  Level Oakland Center
10:15PM 40.7742 -121.6842 178° South 471 542 39,000 -840 Level Oakland Center
10:16PM 40.6436 -121.6767 178° South 469 540 37,300 -2,160 Descending Oakland Center
10:17PM 40.5153 -121.6706 178° South 462 532 34,700 -2,280 Descending Oakland Center
10:18PM 40.3894 -121.6647 178° South 454 522 32,700 -1,980 Descending Oakland Center
10:19PM 40.2661 -121.6578 178° South 443 510 30,700 -1,980 Descending Oakland Center
10:20PM 40.1483 -121.6522 178° South 425 489 28,700 -1,920 Descending Oakland Center
10:21PM 40.0344 -121.6467 178° South 413 475 26,800 -1,860 Descending Oakland Center
10:22PM 39.9233 -121.6406 178° South 403 464 25,000 -1,860 Descending Oakland Center
10:23PM 39.8153 -121.6350 178° South 393 452 23,100 -1,980 Descending Oakland Center
10:24PM 39.6897 -121.6297 178° South 379 436 21,000 -1,920 Descending Oakland Center
10:25PM 39.5883 -121.6247 178° South 369 425 19,200 -1,680 Descending Oakland Center
10:26PM 39.4906 -121.6264 181° South 356 410 17,600 -1,680 Descending Oakland Center
10:27PM 39.3975 -121.6392 186° South 345 397 15,800 -1,680 Descending Oakland Center
10:28PM 39.3056 -121.6489 185° South 335 386 14,200 -1,620 Descending Oakland Center
10:29PM 39.2167 -121.6611 186° South 325 374 12,500 -1,680 Descending Oakland Center
10:30PM 39.1306 -121.6722 186° South 315 362 10,800 -1,440 Descending Oakland Center
10:31PM 39.0481 -121.6847 187° South 302 348 9,600 -1,320 Descending Oakland Center
10:32PM 38.9708 -121.6969 187° South 285 328 8,200 -1,380 Descending Oakland Center
10:33PM 38.8947 -121.7094 187° South 279 321 6,900 -1,320 Descending Oakland Center
10:34PM 38.8206 -121.7056 178° South 270 311 5,600 -1,380 Descending Oakland Center
10:35PM 38.7294 -121.6981 176° South 274 315 4,100 -1,260 Descending Oakland Center
10:36PM 38.6522 -121.6919 176° South 278 320 3,100 -840 Descending Oakland Center
10:37PM 38.6108 -121.6472 140° Southeast 234 269 2,400 -960 Descending Oakland Center
10:38PM 38.6167 -121.6000 81° East 174 200 1,300 -960 Descending Northern Cal TRACON
10:39PM 38.6500 -121.6000 360° North 119 137 600 -720 Descending Northern Cal TRACON